Time;durP1;ratioP1;P1;durP2;ratioP2;P2;SDS_P1;SDS_P2;PMS_P1;PMS_P2;Temp;Humidity;BMP_temperature;BMP_pressure;BME280_temperature;BME280_humidity;BME280_pressure;Samples;Min_cycle;Max_cycle;Signal;HPM_P1;HPM_P2
2023/09/14 00:00:00;;;;;;;5.73;2.90;;;;;;;;;;481496;28;1252;-77
2023/09/14 00:00:15;;;;;;;4.95;2.70;;;;;;;;;;485187;28;1118;-77
2023/09/14 00:00:31;;;;;;;3.65;2.58;;;;;;;;;;481792;28;1103;-77
2023/09/14 00:00:50;;;;;;;4.53;2.50;;;;;;;;;;483788;28;1212;-77
2023/09/14 00:01:06;;;;;;;5.05;2.60;;;;;;;;;;480051;28;1483;-77
2023/09/14 00:01:23;;;;;;;4.78;2.60;;;;;;;;;;480446;28;1192;-77
2023/09/14 00:01:40;;;;;;;4.90;2.55;;;;;;;;;;479862;28;1171;-77
2023/09/14 00:01:56;;;;;;;4.60;2.50;;;;;;;;;;480086;28;1486;-77
2023/09/14 00:02:12;;;;;;;4.03;2.40;;;;;;;;;;476712;28;1184;-77
2023/09/14 00:02:27;;;;;;;3.67;2.60;;;;;;;;;;476461;29;1199;-78
2023/09/14 00:02:43;;;;;;;3.93;2.67;;;;;;;;;;476191;28;1288;-77
2023/09/14 00:02:59;;;;;;;5.57;2.58;;;;;;;;;;479239;28;1072;-77
2023/09/14 00:03:16;;;;;;;7.47;2.60;;;;;;;;;;480116;28;1375;-77
2023/09/14 00:03:32;;;;;;;5.72;2.70;;;;;;;;;;486374;28;1352;-77
2023/09/14 00:03:51;;;;;;;4.00;2.60;;;;;;;;;;485296;28;998;-77
2023/09/14 00:04:06;;;;;;;3.40;2.60;;;;;;;;;;482446;28;1600;-77
2023/09/14 00:04:22;;;;;;;3.77;2.60;;;;;;;;;;484528;28;1251;-77
2023/09/14 00:04:39;;;;;;;4.25;2.47;;;;;;;;;;478008;28;1316;-77
2023/09/14 00:04:54;;;;;;;4.65;2.55;;;;;;;;;;479132;28;1262;-77
2023/09/14 00:05:11;;;;;;;4.23;2.50;;;;;;;;;;477533;29;1269;-77
2023/09/14 00:05:26;;;;;;;6.10;2.40;;;;;;;;;;479707;28;1132;-77
2023/09/14 00:05:43;;;;;;;5.53;2.50;;;;;;;;;;481828;28;1255;-78
2023/09/14 00:06:00;;;;;;;3.55;2.40;;;;;;;;;;482180;28;1198;-77
2023/09/14 00:06:17;;;;;;;3.25;2.38;;;;;;;;;;482066;28;1308;-77
2023/09/14 00:06:33;;;;;;;3.13;2.45;;;;;;;;;;483215;28;987;-77
2023/09/14 00:06:49;;;;;;;4.35;2.60;;;;;;;;;;482832;28;1299;-77
2023/09/14 00:07:04;;;;;;;5.03;2.58;;;;;;;;;;483337;28;1229;-77
2023/09/14 00:07:20;;;;;;;5.00;2.50;;;;;;;;;;480257;28;1192;-77
2023/09/14 00:07:35;;;;;;;5.05;2.60;;;;;;;;;;481544;28;976;-77
2023/09/14 00:07:51;;;;;;;4.60;2.63;;;;;;;;;;480755;28;1240;-77
2023/09/14 00:08:07;;;;;;;3.60;2.50;;;;;;;;;;482629;28;1207;-77
2023/09/14 00:08:22;;;;;;;3.90;2.42;;;;;;;;;;482738;28;1116;-77
2023/09/14 00:08:38;;;;;;;5.33;2.50;;;;;;;;;;482371;28;1212;-77
2023/09/14 00:08:53;;;;;;;4.47;2.50;;;;;;;;;;483565;28;1419;-77
2023/09/14 00:09:09;;;;;;;3.77;2.43;;;;;;;;;;480676;28;1342;-77
2023/09/14 00:09:26;;;;;;;4.22;2.47;;;;;;;;;;480027;28;1466;-77
2023/09/14 00:09:42;;;;;;;3.60;2.40;;;;;;;;;;481133;28;1295;-77
2023/09/14 00:09:58;;;;;;;4.35;2.40;;;;;;;;;;483956;28;1342;-77
2023/09/14 00:10:14;;;;;;;4.45;2.60;;;;;;;;;;482964;28;1280;-77
2023/09/14 00:10:30;;;;;;;3.45;2.58;;;;;;;;;;480230;28;1015;-77
2023/09/14 00:10:52;;;;;;;4.27;2.50;;;;;;;;;;480808;28;1212;-77
2023/09/14 00:11:08;;;;;;;5.32;2.50;;;;;;;;;;479938;28;1194;-77
2023/09/14 00:11:25;;;;;;;4.85;2.40;;;;;;;;;;481178;28;1010;-77
2023/09/14 00:11:40;;;;;;;3.70;2.50;;;;;;;;;;482044;28;1256;-77
2023/09/14 00:11:56;;;;;;;4.07;2.50;;;;;;;;;;481580;28;1303;-77
2023/09/14 00:12:11;;;;;;;3.53;2.50;;;;;;;;;;479601;28;1205;-77
2023/09/14 00:12:27;;;;;;;2.90;2.43;;;;;;;;;;478697;28;920;-77
2023/09/14 00:12:42;;;;;;;3.78;2.58;;;;;;;;;;477977;28;1322;-77
2023/09/14 00:13:02;;;;;;;4.70;2.60;;;;;;;;;;479379;28;1087;-77
2023/09/14 00:13:17;;;;;;;4.10;2.55;;;;;;;;;;482905;28;1450;-77
2023/09/14 00:13:33;;;;;;;3.40;2.50;;;;;;;;;;477837;28;1213;-77
2023/09/14 00:13:48;;;;;;;4.60;2.40;;;;;;;;;;479299;28;1314;-78
2023/09/14 00:14:04;;;;;;;5.33;2.43;;;;;;;;;;479015;28;1144;-78
2023/09/14 00:14:21;;;;;;;4.18;2.45;;;;;;;;;;483155;28;1059;-78
2023/09/14 00:14:38;;;;;;;3.25;2.33;;;;;;;;;;479097;28;1245;-77
2023/09/14 00:14:54;;;;;;;3.85;2.53;;;;;;;;;;481535;28;1427;-77
2023/09/14 00:15:09;;;;;;;4.03;2.50;;;;;;;;;;477522;28;1490;-77
2023/09/14 00:15:25;;;;;;;4.05;2.65;;;;;;;;;;475975;28;1244;-78
2023/09/14 00:15:40;;;;;;;4.45;2.83;;;;;;;;;;472774;28;1387;-78
2023/09/14 00:15:56;;;;;;;4.40;2.63;;;;;;;;;;477354;28;1266;-77
2023/09/14 00:16:12;;;;;;;3.63;2.40;;;;;;;;;;479583;28;1335;-77
2023/09/14 00:16:29;;;;;;;3.70;2.50;;;;;;;;;;480383;28;1258;-77
2023/09/14 00:16:46;;;;;;;3.97;2.47;;;;;;;;;;480450;28;1320;-77
2023/09/14 00:17:02;;;;;;;3.58;2.45;;;;;;;;;;481629;28;1344;-77
2023/09/14 00:17:18;;;;;;;3.88;2.45;;;;;;;;;;478004;28;1183;-77
2023/09/14 00:17:33;;;;;;;4.70;2.40;;;;;;;;;;481078;28;1264;-77
2023/09/14 00:17:49;;;;;;;4.57;2.50;;;;;;;;;;478112;28;1070;-77
2023/09/14 00:18:05;;;;;;;3.40;2.35;;;;;;;;;;481371;28;1365;-78
2023/09/14 00:18:20;;;;;;;3.20;2.20;;;;;;;;;;481760;28;1232;-77
2023/09/14 00:18:37;;;;;;;4.65;2.40;;;;;;;;;;486346;28;1443;-77
2023/09/14 00:18:54;;;;;;;5.63;2.50;;;;;;;;;;482638;28;1335;-77
2023/09/14 00:19:09;;;;;;;4.45;2.50;;;;;;;;;;484110;28;935;-77
2023/09/14 00:19:26;;;;;;;3.50;2.50;;;;;;;;;;486200;28;1181;-77
2023/09/14 00:19:42;;;;;;;3.75;2.35;;;;;;;;;;485376;28;1344;-77
2023/09/14 00:20:00;;;;;;;3.65;2.22;;;;;;;;;;483650;28;955;-77
2023/09/14 00:20:22;;;;;;;3.13;2.17;;;;;;;;;;483304;28;1206;-77
2023/09/14 00:20:38;;;;;;;4.43;2.40;;;;;;;;;;483119;28;948;-77
2023/09/14 00:20:57;;;;;;;3.00;2.30;;;;;;;;;;484173;28;1207;-77
2023/09/14 00:21:12;;;;;;;3.17;2.33;;;;;;;;;;484290;28;1508;-77
2023/09/14 00:21:28;;;;;;;4.63;2.40;;;;;;;;;;480358;28;1379;-77
2023/09/14 00:21:43;;;;;;;4.88;2.38;;;;;;;;;;480555;28;1078;-77
2023/09/14 00:21:59;;;;;;;4.57;2.40;;;;;;;;;;478131;28;1369;-78
2023/09/14 00:22:15;;;;;;;4.32;2.40;;;;;;;;;;479832;28;1254;-77
2023/09/14 00:22:31;;;;;;;4.32;2.30;;;;;;;;;;480926;28;1500;-78
2023/09/14 00:22:49;;;;;;;4.25;2.40;;;;;;;;;;479590;28;1193;-77
2023/09/14 00:23:04;;;;;;;4.38;2.40;;;;;;;;;;479691;28;1133;-77
2023/09/14 00:23:20;;;;;;;4.15;2.30;;;;;;;;;;481721;28;1103;-77
2023/09/14 00:23:37;;;;;;;3.67;2.30;;;;;;;;;;481062;28;1311;-77
2023/09/14 00:23:53;;;;;;;4.38;2.58;;;;;;;;;;480739;28;1341;-77
2023/09/14 00:24:09;;;;;;;3.97;2.40;;;;;;;;;;484150;28;1255;-76
2023/09/14 00:24:24;;;;;;;3.50;2.30;;;;;;;;;;486210;28;1134;-77
2023/09/14 00:24:40;;;;;;;4.20;2.40;;;;;;;;;;484625;28;1231;-77
2023/09/14 00:24:56;;;;;;;4.82;2.30;;;;;;;;;;483504;28;1286;-77
2023/09/14 00:25:13;;;;;;;4.82;2.35;;;;;;;;;;482574;28;1347;-78
2023/09/14 00:25:29;;;;;;;3.65;2.40;;;;;;;;;;479624;28;1351;-76
2023/09/14 00:25:44;;;;;;;3.17;2.40;;;;;;;;;;478858;28;1474;-77
2023/09/14 00:26:00;;;;;;;4.00;2.47;;;;;;;;;;480763;28;1210;-79
2023/09/14 00:26:16;;;;;;;4.00;2.30;;;;;;;;;;481276;28;1253;-77
2023/09/14 00:26:32;;;;;;;2.92;2.30;;;;;;;;;;478123;29;1235;-77
2023/09/14 00:26:51;;;;;;;2.85;2.40;;;;;;;;;;476771;29;1039;-77
2023/09/14 00:27:07;;;;;;;2.95;2.25;;;;;;;;;;480865;28;1213;-77
2023/09/14 00:27:24;;;;;;;2.80;2.20;;;;;;;;;;479692;28;1276;-77
2023/09/14 00:27:39;;;;;;;3.60;2.30;;;;;;;;;;480801;28;1335;-77
2023/09/14 00:27:55;;;;;;;3.92;2.60;;;;;;;;;;482057;28;1422;-77
2023/09/14 00:28:11;;;;;;;4.38;2.53;;;;;;;;;;479919;28;950;-77
2023/09/14 00:28:26;;;;;;;5.07;2.50;;;;;;;;;;482074;28;1347;-77
2023/09/14 00:28:42;;;;;;;4.60;2.60;;;;;;;;;;477895;28;1232;-77
2023/09/14 00:28:59;;;;;;;3.50;2.45;;;;;;;;;;480445;28;1224;-77
2023/09/14 00:29:14;;;;;;;4.40;2.35;;;;;;;;;;483495;28;1349;-77
2023/09/14 00:29:29;;;;;;;5.32;2.50;;;;;;;;;;481957;28;1106;-77
2023/09/14 00:29:48;;;;;;;4.70;2.50;;;;;;;;;;482113;28;1275;-77
2023/09/14 00:30:06;;;;;;;3.63;2.30;;;;;;;;;;481225;28;1329;-77
2023/09/14 00:30:24;;;;;;;3.67;2.38;;;;;;;;;;479357;28;1639;-77
2023/09/14 00:30:39;;;;;;;4.75;2.38;;;;;;;;;;479996;28;1307;-77
2023/09/14 00:30:57;;;;;;;4.38;2.25;;;;;;;;;;479278;28;1138;-77
2023/09/14 00:31:13;;;;;;;3.13;2.25;;;;;;;;;;476868;29;1352;-77
2023/09/14 00:31:28;;;;;;;2.90;2.25;;;;;;;;;;480614;28;1318;-77
2023/09/14 00:31:46;;;;;;;3.47;2.27;;;;;;;;;;480965;28;1510;-77
2023/09/14 00:32:02;;;;;;;4.88;2.40;;;;;;;;;;479234;28;1196;-77
2023/09/14 00:32:17;;;;;;;4.05;2.25;;;;;;;;;;481795;28;1145;-77
2023/09/14 00:32:38;;;;;;;3.97;2.20;;;;;;;;;;476225;28;1199;-77
2023/09/14 00:32:55;;;;;;;3.15;2.20;;;;;;;;;;475757;28;1462;-77
2023/09/14 00:33:11;;;;;;;3.63;2.38;;;;;;;;;;477975;28;1254;-77
2023/09/14 00:33:26;;;;;;;3.88;2.38;;;;;;;;;;479610;28;1124;-77
2023/09/14 00:33:42;;;;;;;4.07;2.30;;;;;;;;;;478248;28;1178;-77
2023/09/14 00:33:59;;;;;;;4.32;2.40;;;;;;;;;;481480;28;1274;-77
2023/09/14 00:34:16;;;;;;;3.60;2.45;;;;;;;;;;472154;29;1079;-77
2023/09/14 00:34:32;;;;;;;2.80;2.38;;;;;;;;;;481847;28;1161;-77
2023/09/14 00:34:47;;;;;;;3.07;2.40;;;;;;;;;;477320;28;1177;-77
2023/09/14 00:35:03;;;;;;;4.10;2.50;;;;;;;;;;481419;28;1142;-76
2023/09/14 00:35:19;;;;;;;4.07;2.50;;;;;;;;;;481565;28;1258;-77
2023/09/14 00:35:35;;;;;;;3.35;2.40;;;;;;;;;;481859;28;1423;-77
2023/09/14 00:35:51;;;;;;;4.10;2.45;;;;;;;;;;480480;28;1312;-77
2023/09/14 00:36:06;;;;;;;4.30;2.40;;;;;;;;;;478791;28;1326;-77
2023/09/14 00:36:22;;;;;;;3.67;2.20;;;;;;;;;;484116;28;1245;-77
2023/09/14 00:36:38;;;;;;;4.30;2.27;;;;;;;;;;482720;28;1373;-77
2023/09/14 00:36:54;;;;;;;5.05;2.40;;;;;;;;;;482180;28;904;-77
2023/09/14 00:37:09;;;;;;;4.75;2.40;;;;;;;;;;482772;28;1156;-77
2023/09/14 00:37:26;;;;;;;3.67;2.30;;;;;;;;;;480168;28;1434;-78
2023/09/14 00:37:42;;;;;;;3.65;2.33;;;;;;;;;;479890;28;1308;-78
2023/09/14 00:37:57;;;;;;;4.28;2.40;;;;;;;;;;481153;28;1173;-77
2023/09/14 00:38:14;;;;;;;4.57;2.40;;;;;;;;;;478187;28;1253;-78
2023/09/14 00:38:29;;;;;;;4.38;2.40;;;;;;;;;;478248;28;1250;-77
2023/09/14 00:38:45;;;;;;;4.05;2.28;;;;;;;;;;475952;28;1202;-77
2023/09/14 00:39:01;;;;;;;4.13;2.40;;;;;;;;;;479932;28;1446;-77
2023/09/14 00:39:16;;;;;;;4.22;2.30;;;;;;;;;;481603;28;1173;-77
2023/09/14 00:39:32;;;;;;;4.63;2.37;;;;;;;;;;480068;28;1245;-77
2023/09/14 00:39:48;;;;;;;4.50;2.47;;;;;;;;;;481125;28;1286;-77
2023/09/14 00:40:07;;;;;;;3.53;2.30;;;;;;;;;;479658;28;1270;-77
2023/09/14 00:40:23;;;;;;;4.18;2.30;;;;;;;;;;479702;28;1441;-77
2023/09/14 00:40:39;;;;;;;3.53;2.38;;;;;;;;;;474010;29;1276;-77
2023/09/14 00:40:56;;;;;;;2.80;2.28;;;;;;;;;;476938;29;1130;-77
2023/09/14 00:41:11;;;;;;;3.47;2.47;;;;;;;;;;478668;28;1403;-78
2023/09/14 00:41:27;;;;;;;4.93;2.40;;;;;;;;;;483287;28;1111;-77
2023/09/14 00:41:43;;;;;;;4.18;2.33;;;;;;;;;;481360;28;1244;-76
2023/09/14 00:41:58;;;;;;;3.00;2.17;;;;;;;;;;485306;28;1256;-76
2023/09/14 00:42:14;;;;;;;2.97;2.10;;;;;;;;;;482324;28;1287;-77
2023/09/14 00:42:38;;;;;;;3.75;2.30;;;;;;;;;;482172;28;1414;-77
2023/09/14 00:42:53;;;;;;;3.58;2.20;;;;;;;;;;480379;28;1469;-77
2023/09/14 00:43:09;;;;;;;4.07;2.30;;;;;;;;;;477218;28;1343;-77
2023/09/14 00:43:24;;;;;;;4.57;2.40;;;;;;;;;;482092;28;1108;-77
2023/09/14 00:43:40;;;;;;;5.47;2.40;;;;;;;;;;479130;28;1456;-77
2023/09/14 00:43:56;;;;;;;4.82;2.38;;;;;;;;;;482183;28;916;-77
2023/09/14 00:44:11;;;;;;;4.00;2.40;;;;;;;;;;483380;28;1287;-77
2023/09/14 00:44:27;;;;;;;4.53;2.35;;;;;;;;;;483027;28;1301;-77
2023/09/14 00:44:42;;;;;;;3.20;2.25;;;;;;;;;;481024;28;1367;-77
2023/09/14 00:44:58;;;;;;;3.83;2.30;;;;;;;;;;482489;28;1950;-77
2023/09/14 00:45:20;;;;;;;4.82;2.15;;;;;;;;;;481731;28;1426;-77
2023/09/14 00:45:36;;;;;;;3.38;2.22;;;;;;;;;;485752;28;1432;-77
2023/09/14 00:45:52;;;;;;;4.05;2.35;;;;;;;;;;479761;28;1178;-77
2023/09/14 00:46:07;;;;;;;4.80;2.20;;;;;;;;;;480655;28;1307;-77
2023/09/14 00:46:23;;;;;;;5.17;2.20;;;;;;;;;;481673;28;1535;-76
2023/09/14 00:46:39;;;;;;;5.03;2.33;;;;;;;;;;480897;28;1190;-77
2023/09/14 00:46:54;;;;;;;5.90;2.40;;;;;;;;;;482078;28;1192;-77
2023/09/14 00:47:10;;;;;;;5.53;2.45;;;;;;;;;;477608;28;1206;-77
2023/09/14 00:47:25;;;;;;;4.60;2.42;;;;;;;;;;478987;28;1236;-77
2023/09/14 00:47:48;;;;;;;3.53;2.40;;;;;;;;;;479222;28;1328;-77
2023/09/14 00:48:06;;;;;;;3.40;2.40;;;;;;;;;;478312;29;1265;-77
2023/09/14 00:48:22;;;;;;;3.85;2.38;;;;;;;;;;481025;28;1303;-76
2023/09/14 00:48:39;;;;;;;4.47;2.17;;;;;;;;;;476280;28;1148;-77
2023/09/14 00:48:56;;;;;;;4.13;2.30;;;;;;;;;;474159;28;1449;-77
2023/09/14 00:49:12;;;;;;;3.38;2.50;;;;;;;;;;478648;28;1423;-77
2023/09/14 00:49:27;;;;;;;3.70;2.40;;;;;;;;;;481491;28;1220;-77
2023/09/14 00:49:43;;;;;;;3.42;2.40;;;;;;;;;;476930;28;2416;-77
2023/09/14 00:49:59;;;;;;;3.30;2.40;;;;;;;;;;481692;28;1327;-77
2023/09/14 00:50:16;;;;;;;4.50;2.40;;;;;;;;;;481070;28;1354;-77
2023/09/14 00:50:33;;;;;;;4.53;2.47;;;;;;;;;;482048;28;1302;-77
2023/09/14 00:50:49;;;;;;;4.13;2.50;;;;;;;;;;483015;28;1486;-76
2023/09/14 00:51:05;;;;;;;3.37;2.30;;;;;;;;;;482247;28;1131;-77
2023/09/14 00:51:20;;;;;;;3.65;2.28;;;;;;;;;;482167;28;1349;-77
2023/09/14 00:51:36;;;;;;;3.70;2.30;;;;;;;;;;479711;28;1323;-76
2023/09/14 00:51:52;;;;;;;2.97;2.10;;;;;;;;;;481969;28;1333;-77
2023/09/14 00:52:10;;;;;;;4.63;2.35;;;;;;;;;;474927;29;1277;-76
2023/09/14 00:52:27;;;;;;;5.35;2.40;;;;;;;;;;479147;28;1367;-77
2023/09/14 00:52:47;;;;;;;4.70;2.50;;;;;;;;;;482569;28;1252;-77
2023/09/14 00:53:06;;;;;;;3.10;2.30;;;;;;;;;;478892;28;1276;-77
2023/09/14 00:53:22;;;;;;;3.30;2.40;;;;;;;;;;482336;28;1280;-77
2023/09/14 00:53:39;;;;;;;4.05;2.38;;;;;;;;;;482441;28;1132;-77
2023/09/14 00:53:58;;;;;;;4.05;2.40;;;;;;;;;;484795;28;1280;-77
2023/09/14 00:54:14;;;;;;;3.63;2.35;;;;;;;;;;483766;28;1398;-77
2023/09/14 00:54:30;;;;;;;3.55;2.58;;;;;;;;;;482226;28;1317;-77
2023/09/14 00:54:45;;;;;;;4.13;2.50;;;;;;;;;;481180;28;1146;-77
2023/09/14 00:55:04;;;;;;;4.85;2.30;;;;;;;;;;481659;28;1318;-77
2023/09/14 00:55:19;;;;;;;4.70;2.45;;;;;;;;;;481544;28;1327;-77
2023/09/14 00:55:35;;;;;;;3.92;2.40;;;;;;;;;;482159;28;1136;-77
2023/09/14 00:55:51;;;;;;;3.97;2.53;;;;;;;;;;482201;28;1228;-77
2023/09/14 00:56:07;;;;;;;4.13;2.60;;;;;;;;;;480215;28;1221;-77
2023/09/14 00:56:23;;;;;;;3.23;2.40;;;;;;;;;;481968;28;1127;-77
2023/09/14 00:56:39;;;;;;;4.28;2.60;;;;;;;;;;480871;28;1065;-76
2023/09/14 00:56:54;;;;;;;5.18;2.75;;;;;;;;;;479652;28;1225;-77
2023/09/14 00:57:10;;;;;;;3.90;2.50;;;;;;;;;;479118;28;1428;-77
2023/09/14 00:57:26;;;;;;;4.40;2.40;;;;;;;;;;481220;28;1481;-77
2023/09/14 00:57:44;;;;;;;5.00;2.50;;;;;;;;;;483293;28;1356;-77
2023/09/14 00:58:00;;;;;;;3.60;2.60;;;;;;;;;;482365;28;1466;-78
2023/09/14 00:58:16;;;;;;;3.00;2.40;;;;;;;;;;483532;28;1425;-77
2023/09/14 00:58:32;;;;;;;4.20;2.37;;;;;;;;;;485173;28;1264;-77
2023/09/14 00:58:49;;;;;;;4.68;2.35;;;;;;;;;;482411;28;1052;-77
2023/09/14 00:59:07;;;;;;;3.33;2.30;;;;;;;;;;482136;28;1131;-77
2023/09/14 00:59:22;;;;;;;3.55;2.40;;;;;;;;;;478641;28;1236;-77
2023/09/14 00:59:38;;;;;;;4.68;2.50;;;;;;;;;;479656;28;1229;-77
2023/09/14 00:59:54;;;;;;;5.68;2.65;;;;;;;;;;479111;28;987;-77
2023/09/14 01:00:11;;;;;;;4.90;2.53;;;;;;;;;;478852;28;1214;-77
2023/09/14 01:00:27;;;;;;;4.47;2.30;;;;;;;;;;480689;28;1127;-77
2023/09/14 01:00:44;;;;;;;5.03;2.30;;;;;;;;;;480251;28;1296;-77
2023/09/14 01:01:00;;;;;;;5.28;2.30;;;;;;;;;;481470;28;1279;-77
2023/09/14 01:01:15;;;;;;;5.03;2.30;;;;;;;;;;483228;28;1397;-77
2023/09/14 01:01:32;;;;;;;4.88;2.40;;;;;;;;;;495078;23;1812;-77
2023/09/14 01:01:48;;;;;;;3.70;2.47;;;;;;;;;;493367;28;1850;-77
2023/09/14 01:02:04;;;;;;;3.45;2.47;;;;;;;;;;492639;28;1307;-77
2023/09/14 01:02:20;;;;;;;5.60;2.57;;;;;;;;;;495126;28;1263;-77
2023/09/14 01:02:36;;;;;;;5.18;2.50;;;;;;;;;;490050;28;1174;-77
2023/09/14 01:02:58;;;;;;;3.15;2.40;;;;;;;;;;493525;28;1235;-77
2023/09/14 01:03:13;;;;;;;3.58;2.40;;;;;;;;;;494167;28;1577;-77
2023/09/14 01:03:30;;;;;;;3.88;2.40;;;;;;;;;;491615;28;1388;-77
2023/09/14 01:03:46;;;;;;;3.90;2.53;;;;;;;;;;495290;28;1329;-77
2023/09/14 01:04:02;;;;;;;3.13;2.42;;;;;;;;;;494736;28;1446;-77
2023/09/14 01:04:18;;;;;;;4.35;2.40;;;;;;;;;;492120;28;1249;-77
2023/09/14 01:04:33;;;;;;;4.43;2.30;;;;;;;;;;494438;28;1461;-77
2023/09/14 01:04:49;;;;;;;3.95;2.40;;;;;;;;;;490736;28;1180;-77
2023/09/14 01:05:06;;;;;;;4.13;2.50;;;;;;;;;;491686;28;1947;-77
2023/09/14 01:05:23;;;;;;;4.03;2.63;;;;;;;;;;492050;28;1273;-77
2023/09/14 01:05:40;;;;;;;3.97;2.50;;;;;;;;;;493262;28;1523;-77
2023/09/14 01:05:55;;;;;;;3.95;2.40;;;;;;;;;;492496;28;1050;-77
2023/09/14 01:06:12;;;;;;;4.50;2.50;;;;;;;;;;496157;28;1294;-77
2023/09/14 01:06:29;;;;;;;3.60;2.38;;;;;;;;;;495378;28;1193;-77
2023/09/14 01:06:45;;;;;;;3.28;2.35;;;;;;;;;;494784;28;1156;-77
2023/09/14 01:07:01;;;;;;;4.33;2.50;;;;;;;;;;491713;28;1054;-77
2023/09/14 01:07:18;;;;;;;5.63;2.53;;;;;;;;;;494578;28;1399;-77
2023/09/14 01:07:35;;;;;;;4.88;2.53;;;;;;;;;;492255;28;927;-77
2023/09/14 01:07:51;;;;;;;3.92;2.40;;;;;;;;;;489241;28;1342;-77
2023/09/14 01:08:08;;;;;;;4.30;2.50;;;;;;;;;;489020;28;1164;-77
2023/09/14 01:08:24;;;;;;;3.05;2.42;;;;;;;;;;487215;28;1276;-76
2023/09/14 01:08:39;;;;;;;4.57;2.40;;;;;;;;;;490223;28;1336;-77
2023/09/14 01:08:55;;;;;;;5.57;2.40;;;;;;;;;;490182;28;1162;-77
2023/09/14 01:09:11;;;;;;;3.63;2.30;;;;;;;;;;491838;28;1379;-77
2023/09/14 01:09:26;;;;;;;3.70;2.40;;;;;;;;;;493313;28;1232;-77
2023/09/14 01:09:42;;;;;;;3.67;2.50;;;;;;;;;;494660;28;1471;-77
2023/09/14 01:10:00;;;;;;;3.53;2.47;;;;;;;;;;493966;28;1041;-77
2023/09/14 01:10:16;;;;;;;4.20;2.40;;;;;;;;;;491427;28;1188;-77
2023/09/14 01:10:31;;;;;;;4.00;2.40;;;;;;;;;;483960;28;1270;-78
2023/09/14 01:10:47;;;;;;;3.88;2.40;;;;;;;;;;479272;28;1136;-77
2023/09/14 01:11:03;;;;;;;3.35;2.30;;;;;;;;;;481811;28;1181;-77
2023/09/14 01:11:21;;;;;;;4.13;2.40;;;;;;;;;;488699;28;1212;-77
2023/09/14 01:11:37;;;;;;;4.40;2.30;;;;;;;;;;484091;28;1460;-77
2023/09/14 01:11:53;;;;;;;4.97;2.42;;;;;;;;;;481331;28;1336;-77
2023/09/14 01:12:10;;;;;;;5.90;2.70;;;;;;;;;;487176;28;1298;-76
2023/09/14 01:12:27;;;;;;;4.20;2.50;;;;;;;;;;480303;28;1460;-78
2023/09/14 01:12:47;;;;;;;3.33;2.22;;;;;;;;;;479860;28;1323;-77
2023/09/14 01:13:02;;;;;;;4.10;2.30;;;;;;;;;;480949;28;1174;-77
2023/09/14 01:13:37;;;;;;;3.80;2.20;;;;;;;;;;490501;28;1311;-77
2023/09/14 01:14:23;;;;;;;3.08;2.30;;;;;;;;;;479163;28;1288;-77
2023/09/14 01:14:51;;;;;;;4.13;2.53;;;;;;;;;;481915;28;1110;-77
2023/09/14 01:15:19;;;;;;;4.60;2.40;;;;;;;;;;485691;28;1227;-77
2023/09/14 01:15:40;;;;;;;6.13;2.60;;;;;;;;;;483688;28;1470;-77
2023/09/14 01:16:29;;;;;;;2.67;2.17;;;;;;;;;;486381;28;1152;-77
2023/09/14 01:17:01;;;;;;;4.60;2.50;;;;;;;;;;484124;28;1271;-77
2023/09/14 01:17:25;;;;;;;4.47;2.25;;;;;;;;;;488463;28;1884;-77
2023/09/14 01:17:58;;;;;;;4.68;2.58;;;;;;;;;;483903;28;1330;-77
2023/09/14 01:18:35;;;;;;;3.80;2.50;;;;;;;;;;492043;28;1351;-77
2023/09/14 01:19:32;;;;;;;3.88;2.60;;;;;;;;;;485360;28;1397;-77
2023/09/14 01:20:14;;;;;;;4.95;2.50;;;;;;;;;;485149;28;1199;-77
2023/09/14 01:21:05;;;;;;;3.47;2.50;;;;;;;;;;485446;28;1286;-77
2023/09/14 01:21:48;;;;;;;3.80;2.47;;;;;;;;;;489502;28;1252;-77
2023/09/14 01:22:35;;;;;;;3.92;2.33;;;;;;;;;;484552;28;1207;-77
2023/09/14 01:23:21;;;;;;;4.88;2.60;;;;;;;;;;482674;28;1338;-77
2023/09/14 01:23:54;;;;;;;5.10;2.72;;;;;;;;;;485470;28;1012;-77
2023/09/14 01:24:29;;;;;;;4.03;2.47;;;;;;;;;;491465;28;1449;-77
2023/09/14 01:25:04;;;;;;;3.65;2.63;;;;;;;;;;483371;28;1427;-77
2023/09/14 01:25:29;;;;;;;3.35;2.53;;;;;;;;;;486767;28;1316;-76
2023/09/14 01:25:48;;;;;;;5.75;2.80;;;;;;;;;;482845;28;1272;-77
2023/09/14 01:26:04;;;;;;;5.55;2.80;;;;;;;;;;481955;28;1260;-77
2023/09/14 01:26:20;;;;;;;4.75;2.70;;;;;;;;;;484903;28;1178;-77
2023/09/14 01:26:37;;;;;;;4.28;2.70;;;;;;;;;;481439;28;1451;-77
2023/09/14 01:26:53;;;;;;;3.47;2.55;;;;;;;;;;482448;28;1331;-77
2023/09/14 01:27:10;;;;;;;3.90;2.63;;;;;;;;;;486268;28;1390;-76
2023/09/14 01:27:27;;;;;;;4.90;2.63;;;;;;;;;;482550;28;1095;-77
2023/09/14 01:27:44;;;;;;;5.38;2.50;;;;;;;;;;482288;28;1354;-77
2023/09/14 01:28:10;;;;;;;4.45;2.60;;;;;;;;;;480842;28;1446;-77
2023/09/14 01:28:26;;;;;;;4.70;2.65;;;;;;;;;;479507;28;1070;-77
2023/09/14 01:28:42;;;;;;;4.15;2.75;;;;;;;;;;480597;28;1272;-77
2023/09/14 01:28:59;;;;;;;4.37;2.80;;;;;;;;;;482158;28;1246;-77
2023/09/14 01:29:14;;;;;;;4.18;2.75;;;;;;;;;;487527;28;1375;-77
2023/09/14 01:29:30;;;;;;;4.50;2.78;;;;;;;;;;486263;28;1425;-87
2023/09/14 01:29:47;;;;;;;5.35;2.83;;;;;;;;;;485765;28;1138;-88
2023/09/14 01:30:04;;;;;;;4.38;2.63;;;;;;;;;;483825;28;1047;-89
2023/09/14 01:30:20;;;;;;;3.83;2.50;;;;;;;;;;486128;28;1325;-86
2023/09/14 01:30:37;;;;;;;4.72;2.55;;;;;;;;;;482122;28;1191;-86
2023/09/14 01:30:53;;;;;;;4.72;2.70;;;;;;;;;;482348;28;1476;-86
2023/09/14 01:31:08;;;;;;;4.05;2.75;;;;;;;;;;487148;28;926;-87
2023/09/14 01:31:26;;;;;;;3.80;2.80;;;;;;;;;;483367;28;1209;-86
2023/09/14 01:31:42;;;;;;;5.22;2.88;;;;;;;;;;475687;28;1402;-87
2023/09/14 01:31:57;;;;;;;4.82;2.67;;;;;;;;;;476193;29;1118;-86
2023/09/14 01:32:13;;;;;;;2.85;2.40;;;;;;;;;;479908;29;1338;-87
2023/09/14 01:32:29;;;;;;;3.22;2.50;;;;;;;;;;482168;28;1219;-87
2023/09/14 01:32:45;;;;;;;3.47;2.50;;;;;;;;;;484976;28;1201;-86
2023/09/14 01:33:01;;;;;;;4.03;2.58;;;;;;;;;;483881;28;1295;-86
2023/09/14 01:33:20;;;;;;;3.85;2.80;;;;;;;;;;486422;28;1409;-86
2023/09/14 01:33:36;;;;;;;4.93;2.67;;;;;;;;;;485485;28;1359;-86
2023/09/14 01:33:51;;;;;;;5.05;2.60;;;;;;;;;;485017;28;1109;-87
2023/09/14 01:34:07;;;;;;;3.78;2.70;;;;;;;;;;486428;28;1283;-87
2023/09/14 01:34:23;;;;;;;3.43;2.70;;;;;;;;;;485651;28;1293;-87
2023/09/14 01:34:39;;;;;;;3.40;2.60;;;;;;;;;;484414;28;1315;-88
2023/09/14 01:34:55;;;;;;;3.83;2.40;;;;;;;;;;484025;28;1454;-86
2023/09/14 01:35:11;;;;;;;3.92;2.45;;;;;;;;;;490394;28;1604;-87
2023/09/14 01:35:28;;;;;;;4.80;2.70;;;;;;;;;;482766;28;1189;-86
2023/09/14 01:36:02;;;;;;;4.57;2.80;;;;;;;;;;482066;28;1327;-86
2023/09/14 01:36:25;;;;;;;5.50;2.60;;;;;;;;;;486000;28;1302;-86
2023/09/14 01:36:51;;;;;;;5.43;2.55;;;;;;;;;;481612;28;1411;-86
2023/09/14 01:37:07;;;;;;;4.90;2.58;;;;;;;;;;486785;28;1275;-85
2023/09/14 01:37:25;;;;;;;5.70;2.63;;;;;;;;;;486704;28;1398;-88
2023/09/14 01:37:41;;;;;;;5.85;2.47;;;;;;;;;;482791;28;1477;-87
2023/09/14 01:38:00;;;;;;;4.30;2.30;;;;;;;;;;483083;28;1050;-86
2023/09/14 01:38:16;;;;;;;4.28;2.47;;;;;;;;;;487485;28;1250;-87
2023/09/14 01:38:33;;;;;;;3.77;2.53;;;;;;;;;;477452;28;1190;-86
2023/09/14 01:38:51;;;;;;;3.72;2.38;;;;;;;;;;484865;28;1429;-87
2023/09/14 01:39:06;;;;;;;4.28;2.35;;;;;;;;;;486625;28;1391;-86
2023/09/14 01:39:24;;;;;;;3.87;2.40;;;;;;;;;;486877;28;1283;-86
2023/09/14 01:39:41;;;;;;;3.60;2.42;;;;;;;;;;485115;28;1287;-87
2023/09/14 01:39:58;;;;;;;4.10;2.35;;;;;;;;;;485446;28;1285;-86
2023/09/14 01:40:14;;;;;;;3.83;2.30;;;;;;;;;;494296;28;1192;-86
2023/09/14 01:40:32;;;;;;;3.70;2.30;;;;;;;;;;477621;29;1340;-87
2023/09/14 01:40:48;;;;;;;3.92;2.30;;;;;;;;;;486579;28;1353;-87
2023/09/14 01:41:04;;;;;;;4.30;2.60;;;;;;;;;;485681;28;1388;-87
2023/09/14 01:41:21;;;;;;;5.70;2.70;;;;;;;;;;490438;28;1134;-87
2023/09/14 01:41:37;;;;;;;4.72;2.55;;;;;;;;;;484207;28;1406;-86
2023/09/14 01:41:57;;;;;;;6.05;2.55;;;;;;;;;;484950;28;1383;-86
2023/09/14 01:42:12;;;;;;;5.40;2.42;;;;;;;;;;492255;28;1318;-87
2023/09/14 01:42:29;;;;;;;3.60;2.40;;;;;;;;;;487721;28;1243;-85
2023/09/14 01:42:46;;;;;;;3.33;2.22;;;;;;;;;;484397;28;1493;-87
2023/09/14 01:43:03;;;;;;;3.70;2.38;;;;;;;;;;483042;28;1274;-87
2023/09/14 01:43:19;;;;;;;4.35;2.67;;;;;;;;;;488815;28;1426;-86
2023/09/14 01:43:36;;;;;;;4.20;2.50;;;;;;;;;;485666;28;1429;-86
2023/09/14 01:43:53;;;;;;;3.88;2.50;;;;;;;;;;488479;28;1279;-87
2023/09/14 01:44:10;;;;;;;4.57;2.70;;;;;;;;;;491176;28;1278;-86
2023/09/14 01:44:27;;;;;;;4.25;2.53;;;;;;;;;;490338;28;1267;-87
2023/09/14 01:44:43;;;;;;;3.58;2.40;;;;;;;;;;488104;28;1310;-86
2023/09/14 01:44:58;;;;;;;3.53;2.38;;;;;;;;;;487744;28;1266;-86
2023/09/14 01:45:15;;;;;;;4.40;2.40;;;;;;;;;;492450;28;1953;-87
2023/09/14 01:45:33;;;;;;;4.35;2.40;;;;;;;;;;486727;28;1457;-86
2023/09/14 01:45:50;;;;;;;3.97;2.42;;;;;;;;;;481238;28;1415;-86
2023/09/14 01:46:06;;;;;;;3.95;2.50;;;;;;;;;;484804;28;1168;-87
2023/09/14 01:46:22;;;;;;;4.00;2.47;;;;;;;;;;488273;28;1084;-86
2023/09/14 01:46:39;;;;;;;3.63;2.50;;;;;;;;;;483476;28;1093;-86
2023/09/14 01:46:58;;;;;;;4.53;2.58;;;;;;;;;;483974;28;1280;-85
2023/09/14 01:47:14;;;;;;;4.95;2.47;;;;;;;;;;492325;28;1279;-87
2023/09/14 01:47:32;;;;;;;3.05;2.60;;;;;;;;;;484409;28;1266;-85
2023/09/14 01:47:52;;;;;;;3.58;2.50;;;;;;;;;;488945;28;1290;-87
2023/09/14 01:48:09;;;;;;;5.43;2.63;;;;;;;;;;487770;28;1330;-85
2023/09/14 01:48:24;;;;;;;4.10;2.53;;;;;;;;;;491221;28;1147;-85
2023/09/14 01:48:40;;;;;;;4.45;2.40;;;;;;;;;;485397;28;1208;-87
2023/09/14 01:48:56;;;;;;;4.50;2.53;;;;;;;;;;487235;28;1269;-88